createdAt,value
2019-03-20T00:00:03.316Z,2.8
2019-03-20T00:05:08.171Z,3
2019-03-20T00:10:05.207Z,3.2
2019-03-20T00:15:12.879Z,3.3
2019-03-20T00:20:10.476Z,3.3
2019-03-20T00:25:02.855Z,3.3
2019-03-20T00:30:02.826Z,3.3
2019-03-20T00:35:07.831Z,3.2
2019-03-20T00:40:03.214Z,3.2
2019-03-20T00:45:03.205Z,3.3
2019-03-20T00:50:03.223Z,3.3
2019-03-20T00:55:08.222Z,3.2
2019-03-20T01:00:05.879Z,3.3
2019-03-20T01:05:15.890Z,3.1
2019-03-20T01:10:04.943Z,3
2019-03-20T01:15:02.322Z,3
2019-03-20T01:20:09.908Z,2.8
2019-03-20T01:25:04.912Z,2.9
2019-03-20T01:30:02.905Z,2.8
2019-03-20T01:35:05.424Z,2.5
2019-03-20T01:40:02.937Z,2.5
2019-03-20T01:45:05.485Z,2.2
2019-03-20T01:50:05.052Z,2.2
2019-03-20T01:55:07.522Z,2.1
2019-03-20T02:00:05.039Z,2.1
2019-03-20T02:05:05.053Z,2.1
2019-03-20T02:10:10.180Z,2.2
2019-03-20T02:15:02.484Z,2.2
2019-03-20T02:20:25.325Z,2.2
2019-03-20T02:25:03.292Z,2.1
2019-03-20T02:30:31.161Z,2.3
2019-03-20T02:35:03.259Z,2.3
2019-03-20T02:40:05.268Z,2.3
2019-03-20T02:45:02.703Z,2.2
2019-03-20T02:50:35.607Z,2
2019-03-20T02:55:07.754Z,2
2019-03-20T03:00:02.834Z,2
2019-03-20T03:05:05.371Z,1.7
2019-03-20T03:10:25.657Z,1.7
2019-03-20T03:15:02.662Z,1.7
2019-03-20T03:20:02.757Z,1.7
2019-03-20T03:25:05.290Z,1.6
2019-03-20T03:30:13.628Z,1.4
2019-03-20T03:35:07.574Z,1.2
2019-03-20T03:40:20.511Z,1
2019-03-20T03:45:07.744Z,0.9
2019-03-20T03:50:05.347Z,0.9
2019-03-20T03:55:02.731Z,0.8
2019-03-20T04:00:10.486Z,0.8
2019-03-20T04:05:02.927Z,0.8
2019-03-20T04:10:07.858Z,0.8
2019-03-20T04:15:05.094Z,0.6
2019-03-20T04:20:03.200Z,0.6
2019-03-20T04:25:05.708Z,0.6
2019-03-20T04:30:05.294Z,0.6
2019-03-20T04:35:05.203Z,0.5
2019-03-20T04:40:05.243Z,0.6
2019-03-20T04:45:15.380Z,0.5
2019-03-20T04:50:22.687Z,0.7
2019-03-20T04:55:02.364Z,0.7
2019-03-20T05:00:03.407Z,0.5
2019-03-20T05:05:03.178Z,0.4
2019-03-20T05:10:05.145Z,0.2
2019-03-20T05:15:05.078Z,0.2
2019-03-20T05:20:08.320Z,0.2
2019-03-20T05:25:10.833Z,0.3
2019-03-20T05:30:05.418Z,0.3
2019-03-20T05:35:03.019Z,0.3
2019-03-20T05:40:02.560Z,0.3
2019-03-20T05:45:07.521Z,0.3
2019-03-20T05:50:02.558Z,0.3
2019-03-20T05:55:07.454Z,0.4
2019-03-20T06:00:04.998Z,0.5
2019-03-20T06:05:04.988Z,0.4
2019-03-20T06:10:07.560Z,0.4
2019-03-20T06:15:24.485Z,0.5
2019-03-20T06:20:05.407Z,0.6
2019-03-20T06:25:02.719Z,0.6
2019-03-20T06:30:02.550Z,0.6
2019-03-20T06:35:10.097Z,0.7
2019-03-20T06:40:02.727Z,0.7
2019-03-20T06:45:20.169Z,1
2019-03-20T06:50:03.249Z,1
2019-03-20T06:55:10.736Z,1.2
2019-03-20T07:00:05.580Z,1.4
2019-03-20T07:05:10.312Z,1.5
2019-03-20T07:10:05.383Z,1.7
2019-03-20T07:15:05.265Z,1.9
2019-03-20T07:20:18.555Z,2.2
2019-03-20T07:25:03.301Z,2.2
2019-03-20T07:30:05.839Z,2.8
2019-03-20T07:35:05.827Z,3.1
2019-03-20T07:40:03.457Z,3.1
2019-03-20T07:45:09.945Z,3.6
2019-03-20T07:50:18.365Z,3.9
2019-03-20T07:55:13.323Z,4.1
2019-03-20T08:00:13.562Z,4.6
2019-03-20T08:05:28.401Z,4.8
2019-03-20T08:10:10.666Z,5
2019-03-20T08:15:18.249Z,5.5
2019-03-20T08:20:02.379Z,5.5
2019-03-20T08:25:04.927Z,6.2
2019-03-20T08:30:02.939Z,6.1
2019-03-20T08:35:02.968Z,6.4
2019-03-20T08:40:15.755Z,6.9
2019-03-20T08:45:05.760Z,7
2019-03-20T08:50:17.939Z,7.1
2019-03-20T08:55:02.791Z,7.1
2019-03-20T09:00:23.066Z,7.4
2019-03-20T09:05:02.863Z,7.4
2019-03-20T09:10:08.029Z,7.6
2019-03-20T09:15:20.780Z,7.7
2019-03-20T09:20:13.121Z,7.9
2019-03-20T09:25:08.031Z,8
2019-03-20T09:30:05.643Z,8.2
2019-03-20T09:35:08.109Z,8.3
2019-03-20T09:40:05.210Z,8.4
2019-03-20T09:45:12.773Z,8.6
2019-03-20T09:50:02.932Z,8.6
2019-03-20T09:55:28.173Z,8.8
2019-03-20T10:00:08.299Z,8.9
2019-03-20T10:05:02.359Z,8.9
2019-03-20T10:10:02.890Z,9
2019-03-20T10:15:35.745Z,9.3
2019-03-20T10:20:05.380Z,9.4
2019-03-20T10:25:07.977Z,9.6
2019-03-20T10:30:03.052Z,9.6
2019-03-20T10:35:05.553Z,9.9
2019-03-20T10:40:03.125Z,9.9
2019-03-20T10:45:15.869Z,10.1
2019-03-20T10:50:02.939Z,10.1
2019-03-20T10:55:25.215Z,10.2
2019-03-20T11:05:35.245Z,10.4
2019-03-20T11:10:08.003Z,10.7
2019-03-20T11:15:23.255Z,10.8
2019-03-20T11:20:02.770Z,10.8
2019-03-20T11:25:05.175Z,11
2019-03-20T11:30:05.750Z,11.1
2019-03-20T11:40:02.861Z,11.2
2019-03-20T11:45:05.427Z,11.3
2019-03-20T11:50:05.123Z,11.5
2019-03-20T11:55:05.054Z,11.6
2019-03-20T12:00:08.216Z,11.7
2019-03-20T12:05:20.522Z,11.8
2019-03-20T12:10:30.873Z,11.9
2019-03-20T12:15:02.901Z,11.9
2019-03-20T12:20:13.172Z,12
2019-03-20T12:25:20.952Z,12
2019-03-20T12:30:03.029Z,12.1
2019-03-20T12:35:08.148Z,12.4
2019-03-20T12:40:05.260Z,9.4
2019-03-20T12:45:02.728Z,12.6
2019-03-20T12:50:05.327Z,12.9
2019-03-20T12:55:02.863Z,12.9
2019-03-20T13:00:30.852Z,14.3
2019-03-20T13:05:10.545Z,13.8
2019-03-20T13:10:05.758Z,14
2019-03-20T13:15:05.755Z,14.1
2019-03-20T13:20:05.487Z,14.5
2019-03-20T13:25:20.689Z,14.8
2019-03-20T13:30:07.939Z,14.9
2019-03-20T13:35:05.070Z,15.5
2019-03-20T13:40:14.130Z,16.2
2019-03-20T13:45:10.345Z,16.9
2019-03-20T13:50:12.558Z,17.2
2019-03-20T13:55:15.264Z,16.6
2019-03-20T14:00:02.439Z,16.5
2019-03-20T14:05:10.119Z,16.1
2019-03-20T14:10:05.261Z,16
2019-03-20T14:15:15.446Z,16.1
2019-03-20T14:20:02.713Z,16.1
2019-03-20T14:25:02.788Z,15.8
2019-03-20T14:30:08.399Z,16.2
2019-03-20T14:35:10.005Z,16.7
2019-03-20T14:40:02.618Z,16.7
2019-03-20T14:45:10.366Z,15.5
2019-03-20T14:50:10.103Z,15.6
2019-03-20T14:55:05.061Z,15.8
2019-03-20T15:00:07.758Z,16
2019-03-20T15:05:10.395Z,16.3
2019-03-20T15:10:08.165Z,16.2
2019-03-20T15:15:10.717Z,15.7
2019-03-20T15:20:10.561Z,15.3
2019-03-20T15:25:10.565Z,14.7
2019-03-20T15:30:02.704Z,14.6
2019-03-20T15:35:10.405Z,14.1
2019-03-20T15:40:05.477Z,13.9
2019-03-20T15:45:03.350Z,13.9
2019-03-20T15:50:07.695Z,13.5
2019-03-20T15:55:02.532Z,13.6
2019-03-20T16:05:17.881Z,13.2
2019-03-20T16:10:02.451Z,13.2
2019-03-20T16:15:17.760Z,13.1
2019-03-20T16:20:05.626Z,13.1
2019-03-20T16:25:05.516Z,13.1
2019-03-20T16:30:20.310Z,12.8
2019-03-20T16:35:17.772Z,12.9
2019-03-20T16:40:05.841Z,12.8
2019-03-20T16:45:17.475Z,12.8
2019-03-20T16:50:10.128Z,12.7
2019-03-20T17:00:35.641Z,12.6
2019-03-20T17:05:22.978Z,12.5
2019-03-20T17:15:07.984Z,12.4
2019-03-20T17:20:08.275Z,12.4
2019-03-20T17:25:20.877Z,12.3
2019-03-20T17:30:20.668Z,12.3
2019-03-20T17:35:10.690Z,12.2
2019-03-20T17:40:05.750Z,12.2
2019-03-20T17:45:13.491Z,12.1
2019-03-20T17:50:02.595Z,12.2
2019-03-20T17:55:17.850Z,12.1
2019-03-20T18:00:15.604Z,12
2019-03-20T18:05:02.846Z,12
2019-03-20T18:10:15.176Z,12
2019-03-20T18:15:20.153Z,11.9
2019-03-20T18:20:05.819Z,11.9
2019-03-20T18:25:15.011Z,11.9
2019-03-20T18:30:05.653Z,11.9
2019-03-20T18:35:08.249Z,11.9
2019-03-20T18:40:15.503Z,11.9
2019-03-20T18:45:05.586Z,11.9
2019-03-20T18:50:12.804Z,11.8
2019-03-20T18:55:10.353Z,11.9
2019-03-20T19:00:05.048Z,11.8
2019-03-20T19:05:02.603Z,11.8
2019-03-20T19:10:05.149Z,11.8
2019-03-20T19:15:05.207Z,11.8
2019-03-20T19:20:07.675Z,11.8
2019-03-20T19:25:10.710Z,11.7
2019-03-20T19:30:02.787Z,11.7
2019-03-20T19:35:07.934Z,11.6
2019-03-20T19:40:05.099Z,11.6
2019-03-20T19:45:17.736Z,11.6
2019-03-20T19:50:05.517Z,11.6
2019-03-20T19:55:05.442Z,11.6
2019-03-20T20:00:05.108Z,11.6
2019-03-20T20:05:25.409Z,11.5
2019-03-20T20:15:07.935Z,11.5
2019-03-20T20:20:03.117Z,11.5
2019-03-20T20:25:10.761Z,11.5
2019-03-20T20:30:05.485Z,5
2019-03-20T20:35:05.543Z,11.5
2019-03-20T20:40:03.072Z,11.5
2019-03-20T20:45:03.107Z,11.4
2019-03-20T20:50:05.689Z,11.3
2019-03-20T20:55:23.353Z,11.2
2019-03-20T21:00:10.104Z,11.2
2019-03-20T21:05:02.622Z,11.3
2019-03-20T21:10:08.268Z,11.3
2019-03-20T21:15:10.819Z,11.2
2019-03-20T21:20:13.091Z,11.2
2019-03-20T21:25:23.330Z,11.2
2019-03-20T21:30:02.480Z,11.2
2019-03-20T21:35:02.510Z,11.3
2019-03-20T21:40:15.738Z,11.2
2019-03-20T21:45:03.135Z,11.2
2019-03-20T21:50:05.766Z,11.2
2019-03-20T21:55:36.132Z,11.2
2019-03-20T22:00:33.545Z,11.2
2019-03-20T22:05:05.166Z,11.1
2019-03-20T22:10:05.307Z,11.1
2019-03-20T22:15:20.590Z,11.1
2019-03-20T22:20:02.742Z,11.1
2019-03-20T22:25:10.433Z,11
2019-03-20T22:30:17.685Z,11
2019-03-20T22:35:05.101Z,11
2019-03-20T22:40:02.614Z,11
2019-03-20T22:45:25.174Z,10.9
2019-03-20T22:50:10.931Z,10.9
2019-03-20T22:55:21.031Z,10.8
2019-03-20T23:00:13.342Z,10.8
2019-03-20T23:05:15.796Z,10.8
2019-03-20T23:10:10.895Z,10.8
2019-03-20T23:15:07.418Z,10.8
2019-03-20T23:20:05.085Z,10.8
2019-03-20T23:25:20.309Z,10.7
2019-03-20T23:30:07.407Z,10.7
2019-03-20T23:35:10.036Z,10.6
2019-03-20T23:40:10.243Z,10.7
2019-03-20T23:45:05.229Z,10.7
2019-03-20T23:50:26.179Z,10.6
2019-03-20T23:55:20.939Z,10.6
